createdAt,value
2022-10-07T00:02:21.035Z,75.85
2022-10-07T00:04:47.744Z,76.75
2022-10-07T00:07:15.044Z,76.56
2022-10-07T00:09:41.729Z,77.09
2022-10-07T00:12:08.308Z,76.15
2022-10-07T00:14:34.816Z,76.49
2022-10-07T00:17:01.335Z,76.98
2022-10-07T00:19:27.901Z,77.03
2022-10-07T00:21:54.362Z,76.66
2022-10-07T00:24:20.820Z,76.16
2022-10-07T00:26:47.320Z,77.10
2022-10-07T00:29:13.771Z,76.48
2022-10-07T00:31:41.695Z,75.88
2022-10-07T00:34:08.181Z,76.33
2022-10-07T00:36:37.455Z,77.65
2022-10-07T00:39:07.691Z,77.97
2022-10-07T00:42:03.442Z,77.72
2022-10-07T00:44:32.581Z,78.93
2022-10-07T00:47:04.365Z,79.13
2022-10-07T00:49:35.063Z,79.57
2022-10-07T00:52:01.654Z,78.87
2022-10-07T00:54:28.106Z,78.45
2022-10-07T00:56:54.573Z,79.98
2022-10-07T00:59:21.418Z,81.43
2022-10-07T01:01:47.879Z,81.75
2022-10-07T01:04:15.169Z,80.84
2022-10-07T01:06:42.895Z,81.97
2022-10-07T01:09:10.808Z,80.68
2022-10-07T01:11:46.302Z,80.36
2022-10-07T01:14:19.687Z,79.99
2022-10-07T01:16:53.297Z,79.84
2022-10-07T01:19:38.905Z,80.04
2022-10-07T01:22:23.733Z,80.43
2022-10-07T01:25:03.418Z,80.14
2022-10-07T01:27:30.226Z,79.74
2022-10-07T01:30:01.341Z,80.92
2022-10-07T01:32:35.070Z,80.81
2022-10-07T01:35:02.734Z,79.97
2022-10-07T01:37:34.570Z,80.19
2022-10-07T01:40:06.116Z,80.04
2022-10-07T01:42:33.477Z,79.77
2022-10-07T01:45:00.657Z,81.18
2022-10-07T01:47:27.131Z,80.48
2022-10-07T01:49:53.540Z,80.84
2022-10-07T01:52:28.998Z,79.68
2022-10-07T01:55:32.486Z,81.15
2022-10-07T01:58:06.299Z,80.38
2022-10-07T02:00:36.400Z,80.63
2022-10-07T02:03:24.545Z,80.72
2022-10-07T02:06:00.840Z,83.33
2022-10-07T02:08:38.841Z,83.95
2022-10-07T02:11:23.084Z,83.68
2022-10-07T02:13:52.592Z,84.23
2022-10-07T02:16:22.918Z,82.43
2022-10-07T02:18:51.644Z,81.80
2022-10-07T02:21:25.614Z,83.20
2022-10-07T02:23:53.184Z,83.25
2022-10-07T02:26:21.245Z,83.02
2022-10-07T02:28:51.254Z,82.98
2022-10-07T02:31:21.126Z,83.36
2022-10-07T02:33:48.008Z,83.30
2022-10-07T02:36:26.580Z,82.98
2022-10-07T02:38:53.298Z,82.46
2022-10-07T02:41:34.065Z,82.93
2022-10-07T02:44:25.976Z,84.35
2022-10-07T02:46:56.631Z,85.48
2022-10-07T02:49:23.841Z,85.81
2022-10-07T02:51:56.403Z,86.12
2022-10-07T02:54:27.186Z,85.13
2022-10-07T02:56:54.111Z,84.78
2022-10-07T02:59:22.288Z,85.27
2022-10-07T03:01:50.490Z,84.84
2022-10-07T03:04:18.652Z,85.33
2022-10-07T03:06:45.144Z,84.91
2022-10-07T03:09:12.014Z,85.39
2022-10-07T03:11:38.688Z,84.81
2022-10-07T03:14:05.526Z,84.74
2022-10-07T03:16:32.136Z,84.82
2022-10-07T03:19:01.570Z,84.37
2022-10-07T03:21:28.300Z,83.98
2022-10-07T03:24:00.898Z,85.99
2022-10-07T03:26:27.624Z,85.80
2022-10-07T03:28:55.200Z,85.44
2022-10-07T03:31:22.113Z,85.64
2022-10-07T03:33:48.790Z,85.22
2022-10-07T03:36:15.310Z,85.13
2022-10-07T03:38:41.769Z,84.79
2022-10-07T03:41:08.219Z,84.27
2022-10-07T03:43:34.716Z,84.00
2022-10-07T03:46:02.497Z,84.46
2022-10-07T03:48:30.481Z,83.89
2022-10-07T03:51:00.519Z,84.60
2022-10-07T03:53:29.586Z,84.55
2022-10-07T03:55:58.584Z,84.38
2022-10-07T03:58:25.781Z,84.94
2022-10-07T04:00:52.244Z,85.21
2022-10-07T04:03:18.855Z,85.33
2022-10-07T04:05:58.192Z,86.18
2022-10-07T04:08:28.016Z,87.07
2022-10-07T04:10:54.734Z,86.98
2022-10-07T04:13:21.297Z,87.11
2022-10-07T04:15:47.762Z,88.10
2022-10-07T04:18:14.204Z,86.82
2022-10-07T04:20:40.936Z,87.85
2022-10-07T04:23:07.648Z,87.13
2022-10-07T04:25:34.106Z,87.06
2022-10-07T04:28:16.079Z,86.92
2022-10-07T04:30:43.812Z,87.17
2022-10-07T04:33:13.752Z,86.15
2022-10-07T04:35:41.005Z,86.02
2022-10-07T04:38:11.915Z,87.22
2022-10-07T04:40:40.951Z,87.01
2022-10-07T04:43:23.533Z,86.54
2022-10-07T04:45:52.690Z,87.16
2022-10-07T04:48:20.403Z,87.25
2022-10-07T04:50:47.314Z,86.57
2022-10-07T04:53:15.421Z,86.59
2022-10-07T04:55:44.239Z,86.77
2022-10-07T04:58:10.767Z,87.42
2022-10-07T05:00:45.698Z,88.59
2022-10-07T05:03:16.713Z,88.27
2022-10-07T05:05:45.118Z,89.10
2022-10-07T05:08:12.943Z,87.67
2022-10-07T05:10:40.257Z,87.70
2022-10-07T05:13:09.820Z,87.65
2022-10-07T05:15:36.327Z,87.76
2022-10-07T05:18:03.213Z,86.77
2022-10-07T05:20:29.695Z,86.25
2022-10-07T05:22:56.158Z,86.41
2022-10-07T05:25:22.675Z,86.79
2022-10-07T05:27:54.048Z,87.04
2022-10-07T05:30:20.644Z,87.06
2022-10-07T05:32:47.123Z,88.04
2022-10-07T05:35:14.189Z,87.64
2022-10-07T05:37:40.732Z,88.13
2022-10-07T05:40:07.471Z,86.86
2022-10-07T05:42:33.933Z,86.77
2022-10-07T05:45:00.372Z,85.94
2022-10-07T05:47:27.028Z,85.76
2022-10-07T05:49:57.111Z,86.27
2022-10-07T05:52:23.538Z,86.47
2022-10-07T05:54:50.018Z,87.14
2022-10-07T05:57:16.477Z,86.82
2022-10-07T05:59:44.062Z,86.23
2022-10-07T06:02:14.600Z,86.45
2022-10-07T06:04:43.952Z,87.16
2022-10-07T06:07:10.847Z,87.17
2022-10-07T06:09:55.966Z,87.15
2022-10-07T06:12:40.851Z,87.20
2022-10-07T06:15:09.697Z,87.32
2022-10-07T06:17:40.585Z,85.79
2022-10-07T06:20:07.543Z,85.01
2022-10-07T06:22:36.947Z,84.98
2022-10-07T06:25:03.688Z,84.02
2022-10-07T06:27:30.130Z,83.71
2022-10-07T06:29:56.572Z,83.15
2022-10-07T06:32:23.028Z,82.72
2022-10-07T06:34:49.469Z,81.74
2022-10-07T06:37:16.036Z,81.60
2022-10-07T06:39:42.460Z,80.56
2022-10-07T06:42:09.364Z,80.91
2022-10-07T06:44:35.874Z,81.01
2022-10-07T06:47:02.555Z,81.04
2022-10-07T06:49:29.047Z,81.17
2022-10-07T06:51:56.947Z,80.29
2022-10-07T06:54:23.668Z,79.05
2022-10-07T06:56:50.217Z,79.24
2022-10-07T06:59:16.684Z,78.83
2022-10-07T07:01:43.168Z,78.86
2022-10-07T07:04:09.600Z,78.72
2022-10-07T07:06:39.085Z,78.22
2022-10-07T07:09:05.524Z,77.81
2022-10-07T07:11:52.923Z,75.61
2022-10-07T07:14:22.141Z,74.39
2022-10-07T07:16:48.776Z,73.16
2022-10-07T07:19:16.097Z,71.67
2022-10-07T07:21:42.984Z,71.31
2022-10-07T07:24:10.223Z,70.32
2022-10-07T07:26:39.463Z,68.63
2022-10-07T07:29:06.431Z,68.16
2022-10-07T07:31:35.101Z,67.75
2022-10-07T07:34:04.400Z,67.21
2022-10-07T07:36:31.548Z,67.65
2022-10-07T07:39:00.425Z,66.22
2022-10-07T07:41:29.464Z,65.14
2022-10-07T07:43:58.198Z,64.77
2022-10-07T07:46:27.859Z,65.49
2022-10-07T07:48:55.275Z,65.48
2022-10-07T07:51:22.726Z,64.10
2022-10-07T07:53:52.563Z,64.36
2022-10-07T07:56:20.235Z,62.40
2022-10-07T07:58:47.187Z,62.18
2022-10-07T08:01:16.078Z,62.72
2022-10-07T08:03:44.093Z,61.02
2022-10-07T08:06:12.055Z,60.79
2022-10-07T08:08:38.586Z,59.86
2022-10-07T08:11:16.140Z,59.56
2022-10-07T08:13:42.892Z,59.49
2022-10-07T08:16:16.992Z,59.84
2022-10-07T08:18:48.345Z,60.39
2022-10-07T08:21:20.887Z,58.25
2022-10-07T08:23:50.524Z,59.26
2022-10-07T08:26:16.978Z,58.72
2022-10-07T08:28:43.519Z,58.32
2022-10-07T08:31:15.244Z,57.99
2022-10-07T08:33:44.982Z,56.17
2022-10-07T08:36:14.345Z,57.41
2022-10-07T08:38:41.291Z,57.32
2022-10-07T08:41:26.255Z,56.05
2022-10-07T08:43:52.809Z,57.49
2022-10-07T08:46:24.846Z,56.06
2022-10-07T08:48:56.130Z,56.67
2022-10-07T08:51:39.193Z,56.18
2022-10-07T08:54:06.158Z,56.32
2022-10-07T08:56:33.444Z,55.51
2022-10-07T08:59:20.576Z,55.38
2022-10-07T09:01:53.061Z,54.64
2022-10-07T09:04:28.580Z,52.75
2022-10-07T09:07:10.020Z,55.01
2022-10-07T09:09:41.213Z,54.13
2022-10-07T09:12:11.369Z,53.19
2022-10-07T09:14:43.983Z,54.87
2022-10-07T09:17:16.098Z,52.59
2022-10-07T09:19:47.159Z,51.84
2022-10-07T09:22:19.635Z,53.39
2022-10-07T09:24:47.443Z,53.28
2022-10-07T09:27:16.243Z,52.71
2022-10-07T09:29:42.882Z,52.28
2022-10-07T09:32:13.364Z,53.80
2022-10-07T09:34:39.908Z,52.00
2022-10-07T09:37:21.454Z,51.72
2022-10-07T09:39:50.453Z,50.60
2022-10-07T09:42:34.126Z,50.42
2022-10-07T09:45:05.108Z,51.98
2022-10-07T09:47:36.722Z,50.93
2022-10-07T09:50:04.145Z,50.76
2022-10-07T09:52:31.796Z,51.25
2022-10-07T09:55:31.879Z,51.59
2022-10-07T09:58:03.729Z,51.96
2022-10-07T10:00:30.721Z,52.72
2022-10-07T10:03:07.712Z,52.28
2022-10-07T10:05:36.990Z,54.08
2022-10-07T10:08:07.273Z,51.88
2022-10-07T10:10:34.987Z,51.49
2022-10-07T10:13:03.877Z,51.18
2022-10-07T10:15:36.250Z,50.73
2022-10-07T10:18:08.142Z,51.48
2022-10-07T10:20:43.544Z,50.66
2022-10-07T10:23:26.865Z,51.19
2022-10-07T10:26:33.305Z,49.26
2022-10-07T10:29:57.541Z,49.49
2022-10-07T10:32:49.411Z,48.20
2022-10-07T10:35:25.149Z,48.48
2022-10-07T10:38:06.768Z,47.76
2022-10-07T10:40:43.849Z,47.02
2022-10-07T10:43:25.524Z,47.02
2022-10-07T10:46:25.906Z,46.57
2022-10-07T10:49:06.997Z,47.17
2022-10-07T10:51:45.642Z,46.89
2022-10-07T10:54:31.684Z,47.30
2022-10-07T10:57:05.310Z,47.92
2022-10-07T10:59:56.060Z,47.10
2022-10-07T11:02:29.444Z,46.98
2022-10-07T11:05:09.212Z,46.86
2022-10-07T11:07:43.532Z,47.28
2022-10-07T11:10:35.171Z,46.80
2022-10-07T11:13:19.440Z,47.87
2022-10-07T11:16:10.182Z,47.89
2022-10-07T11:18:36.801Z,47.49
2022-10-07T11:21:08.717Z,47.20
2022-10-07T11:23:53.270Z,45.28
2022-10-07T11:26:33.852Z,45.47
2022-10-07T11:29:40.727Z,47.03
2022-10-07T11:32:10.059Z,45.35
2022-10-07T11:34:45.394Z,45.33
2022-10-07T11:37:35.627Z,44.66
2022-10-07T11:40:06.474Z,43.46
2022-10-07T11:42:40.418Z,43.63
2022-10-07T11:45:09.803Z,42.99
2022-10-07T11:47:39.111Z,43.46
2022-10-07T11:50:10.557Z,43.45
2022-10-07T11:52:42.855Z,42.81
2022-10-07T11:55:16.873Z,43.85
2022-10-07T11:57:52.380Z,44.02
2022-10-07T12:00:22.084Z,44.21
2022-10-07T12:02:49.631Z,45.07
2022-10-07T12:05:36.446Z,46.15
2022-10-07T12:08:23.798Z,45.91
2022-10-07T12:10:54.389Z,45.94
2022-10-07T12:13:21.043Z,45.87
2022-10-07T12:15:48.760Z,44.18
2022-10-07T12:18:17.617Z,43.73
2022-10-07T12:20:57.779Z,42.71
2022-10-07T12:23:25.929Z,42.62
2022-10-07T12:25:56.027Z,42.30
2022-10-07T12:28:36.111Z,41.07
2022-10-07T12:31:27.481Z,42.58
2022-10-07T12:34:11.442Z,42.23
2022-10-07T12:36:40.674Z,42.85
2022-10-07T12:39:11.804Z,43.79
2022-10-07T12:41:42.926Z,43.55
2022-10-07T12:44:53.545Z,44.09
2022-10-07T12:47:28.760Z,43.56
2022-10-07T12:50:05.911Z,43.08
2022-10-07T12:52:55.785Z,43.42
2022-10-07T12:55:37.292Z,42.06
2022-10-07T12:58:50.682Z,43.04
2022-10-07T13:01:55.850Z,43.31
2022-10-07T13:04:31.217Z,43.73
2022-10-07T13:07:12.490Z,43.76
2022-10-07T13:10:21.581Z,43.42
2022-10-07T13:12:54.413Z,44.71
2022-10-07T13:15:29.234Z,46.19
2022-10-07T13:18:13.065Z,46.11
2022-10-07T13:20:58.376Z,47.05
2022-10-07T13:23:27.378Z,48.36
2022-10-07T13:25:56.989Z,48.76
2022-10-07T13:28:32.079Z,48.60
2022-10-07T13:31:14.113Z,47.97
2022-10-07T13:33:42.152Z,47.95
2022-10-07T13:36:17.128Z,47.69
2022-10-07T13:38:49.091Z,48.13
2022-10-07T13:41:28.297Z,47.66
2022-10-07T13:44:04.397Z,46.73
2022-10-07T13:46:33.428Z,47.22
2022-10-07T13:49:03.878Z,46.06
2022-10-07T13:51:40.472Z,46.76
2022-10-07T13:54:28.124Z,46.49
2022-10-07T13:57:06.710Z,47.17
2022-10-07T13:59:36.848Z,47.66
2022-10-07T14:02:04.615Z,48.02
2022-10-07T14:04:33.763Z,48.54
2022-10-07T14:07:12.251Z,47.57
2022-10-07T14:09:47.774Z,48.09
2022-10-07T14:12:23.162Z,47.77
2022-10-07T14:14:53.561Z,47.92
2022-10-07T14:17:42.855Z,48.30
2022-10-07T14:20:40.582Z,48.40
2022-10-07T14:23:18.633Z,48.21
2022-10-07T14:25:48.424Z,48.13
2022-10-07T14:28:17.927Z,48.47
2022-10-07T14:31:05.510Z,48.75
2022-10-07T14:34:17.049Z,48.25
2022-10-07T14:37:09.658Z,49.19
2022-10-07T14:39:42.461Z,49.29
2022-10-07T14:42:17.768Z,50.03
2022-10-07T14:44:44.572Z,49.35
2022-10-07T14:47:24.361Z,49.77
2022-10-07T14:49:54.841Z,50.19
2022-10-07T14:52:30.245Z,50.71
2022-10-07T14:55:03.148Z,50.91
2022-10-07T14:57:29.670Z,51.54
2022-10-07T14:59:56.375Z,51.88
2022-10-07T15:02:22.916Z,52.35
2022-10-07T15:04:49.622Z,52.51
2022-10-07T15:07:16.764Z,52.96
2022-10-07T15:09:44.577Z,52.52
2022-10-07T15:12:11.848Z,52.88
2022-10-07T15:14:38.363Z,53.06
2022-10-07T15:17:06.128Z,53.70
2022-10-07T15:19:32.918Z,53.81
2022-10-07T15:22:00.114Z,53.92
2022-10-07T15:24:29.067Z,54.04
2022-10-07T15:26:55.710Z,53.57
2022-10-07T15:29:22.543Z,54.32
2022-10-07T15:31:49.331Z,54.98
2022-10-07T15:34:16.009Z,55.01
2022-10-07T15:36:46.737Z,55.40
2022-10-07T15:39:13.311Z,55.92
2022-10-07T15:41:41.571Z,56.09
2022-10-07T15:44:14.373Z,56.09
2022-10-07T15:46:46.610Z,56.23
2022-10-07T15:49:13.718Z,56.45
2022-10-07T15:51:40.265Z,56.93
2022-10-07T15:54:08.259Z,57.10
2022-10-07T15:56:34.689Z,57.22
2022-10-07T15:59:02.185Z,57.58
2022-10-07T16:01:31.813Z,58.34
2022-10-07T16:03:59.577Z,58.52
2022-10-07T16:06:28.440Z,58.93
2022-10-07T16:08:55.882Z,59.47
2022-10-07T16:11:22.656Z,59.28
2022-10-07T16:13:49.305Z,59.38
2022-10-07T16:16:17.989Z,59.82
2022-10-07T16:18:47.857Z,60.64
2022-10-07T16:21:17.605Z,60.88
2022-10-07T16:23:46.246Z,61.02
2022-10-07T16:26:21.468Z,61.05
2022-10-07T16:29:10.583Z,61.46
2022-10-07T16:31:40.357Z,61.78
2022-10-07T16:34:07.731Z,61.92
2022-10-07T16:36:35.939Z,61.98
2022-10-07T16:39:04.739Z,62.21
2022-10-07T16:41:32.289Z,62.90
2022-10-07T16:43:59.662Z,62.50
2022-10-07T16:46:26.584Z,63.20
2022-10-07T16:48:53.148Z,62.35
2022-10-07T16:51:22.213Z,62.08
2022-10-07T16:53:50.406Z,62.24
2022-10-07T16:56:18.555Z,62.60
2022-10-07T16:58:45.319Z,62.73
2022-10-07T17:01:16.560Z,62.89
2022-10-07T17:03:46.752Z,62.92
2022-10-07T17:06:14.594Z,63.41
2022-10-07T17:08:46.202Z,63.80
2022-10-07T17:11:29.096Z,63.45
2022-10-07T17:14:00.934Z,64.17
2022-10-07T17:16:29.809Z,64.09
2022-10-07T17:18:56.607Z,64.48
2022-10-07T17:21:23.402Z,63.98
2022-10-07T17:23:50.177Z,64.64
2022-10-07T17:26:17.233Z,64.55
2022-10-07T17:28:43.742Z,64.97
2022-10-07T17:31:12.407Z,65.61
2022-10-07T17:33:39.913Z,66.00
2022-10-07T17:36:08.286Z,66.37
2022-10-07T17:38:38.813Z,66.82
2022-10-07T17:41:19.507Z,66.63
2022-10-07T17:43:47.255Z,66.45
2022-10-07T17:46:16.632Z,66.46
2022-10-07T17:48:44.666Z,66.91
2022-10-07T17:51:19.656Z,67.52
2022-10-07T17:53:50.434Z,67.69
2022-10-07T17:56:17.197Z,68.03
2022-10-07T17:58:45.998Z,69.47
2022-10-07T18:01:24.115Z,71.08
2022-10-07T18:03:52.642Z,70.39
2022-10-07T18:06:19.444Z,69.35
2022-10-07T18:08:46.195Z,69.61
2022-10-07T18:11:13.002Z,69.86
2022-10-07T18:13:58.144Z,70.33
2022-10-07T18:16:24.739Z,69.84
2022-10-07T18:18:55.398Z,69.73
2022-10-07T18:21:26.046Z,69.03
2022-10-07T18:23:55.659Z,68.49
2022-10-07T18:26:22.130Z,69.20
2022-10-07T18:28:48.660Z,68.12
2022-10-07T18:31:16.943Z,68.69
2022-10-07T18:33:43.793Z,69.86
2022-10-07T18:36:13.212Z,70.02
2022-10-07T18:38:41.648Z,71.34
2022-10-07T18:41:11.204Z,71.00
2022-10-07T18:43:38.114Z,70.04
2022-10-07T18:46:16.030Z,69.82
2022-10-07T18:48:44.860Z,71.17
2022-10-07T18:51:13.161Z,70.52
2022-10-07T18:53:41.441Z,70.50
2022-10-07T18:56:13.586Z,69.46
2022-10-07T18:58:46.125Z,70.75
2022-10-07T19:01:18.088Z,71.98
2022-10-07T19:03:46.206Z,72.66
2022-10-07T19:06:18.589Z,72.68
2022-10-07T19:08:46.075Z,71.35
2022-10-07T19:11:17.137Z,70.60
2022-10-07T19:13:48.487Z,70.95
2022-10-07T19:16:15.926Z,70.14
2022-10-07T19:18:43.725Z,70.58
2022-10-07T19:21:11.544Z,71.11
2022-10-07T19:23:38.971Z,70.61
2022-10-07T19:26:05.759Z,69.74
2022-10-07T19:28:35.125Z,69.64
2022-10-07T19:31:16.662Z,70.07
2022-10-07T19:33:44.620Z,70.46
2022-10-07T19:36:12.596Z,70.67
2022-10-07T19:38:43.190Z,70.81
2022-10-07T19:41:14.828Z,71.12
2022-10-07T19:43:42.603Z,71.35
2022-10-07T19:46:10.017Z,71.63
2022-10-07T19:48:37.304Z,71.83
2022-10-07T19:51:06.907Z,72.14
2022-10-07T19:53:33.983Z,72.58
2022-10-07T19:56:02.125Z,73.08
2022-10-07T19:58:31.407Z,73.08
2022-10-07T20:01:06.094Z,73.27
2022-10-07T20:03:33.884Z,73.49
2022-10-07T20:06:07.711Z,73.87
2022-10-07T20:08:39.180Z,73.53
2022-10-07T20:11:06.460Z,73.39
2022-10-07T20:13:34.134Z,73.63
2022-10-07T20:16:08.716Z,73.64
2022-10-07T20:18:36.405Z,73.41
2022-10-07T20:21:07.090Z,74.63
2022-10-07T20:23:34.394Z,75.21
2022-10-07T20:26:11.744Z,74.88
2022-10-07T20:28:38.560Z,75.23
2022-10-07T20:31:06.542Z,75.02
2022-10-07T20:33:40.130Z,75.17
2022-10-07T20:36:07.119Z,75.15
2022-10-07T20:38:53.655Z,75.13
2022-10-07T20:41:39.301Z,75.39
2022-10-07T20:44:05.850Z,75.72
2022-10-07T20:46:32.666Z,76.70
2022-10-07T20:48:59.234Z,76.61
2022-10-07T20:51:27.138Z,76.53
2022-10-07T20:53:53.975Z,76.61
2022-10-07T20:56:20.393Z,76.81
2022-10-07T20:58:46.863Z,76.92
2022-10-07T21:01:13.712Z,77.38
2022-10-07T21:03:40.331Z,76.52
2022-10-07T21:06:07.026Z,76.93
2022-10-07T21:08:33.581Z,76.32
2022-10-07T21:11:02.037Z,76.58
2022-10-07T21:13:29.702Z,77.13
2022-10-07T21:15:57.068Z,76.61
2022-10-07T21:18:26.494Z,76.72
2022-10-07T21:20:57.011Z,77.72
2022-10-07T21:23:24.614Z,78.65
2022-10-07T21:25:51.868Z,80.01
2022-10-07T21:28:19.069Z,78.87
2022-10-07T21:30:55.546Z,78.16
2022-10-07T21:33:22.119Z,77.74
2022-10-07T21:35:48.555Z,78.27
2022-10-07T21:38:15.024Z,78.93
2022-10-07T21:40:41.759Z,78.39
2022-10-07T21:43:08.174Z,79.70
2022-10-07T21:45:34.604Z,78.70
2022-10-07T21:48:01.911Z,79.32
2022-10-07T21:50:28.342Z,79.06
2022-10-07T21:52:54.772Z,78.28
2022-10-07T21:55:21.241Z,78.11
2022-10-07T21:57:47.691Z,77.97
2022-10-07T22:00:15.927Z,78.50
2022-10-07T22:02:43.504Z,78.76
2022-10-07T22:05:11.559Z,78.99
2022-10-07T22:07:57.885Z,78.44
2022-10-07T22:10:24.320Z,79.03
2022-10-07T22:12:50.778Z,79.33
2022-10-07T22:15:17.290Z,79.94
2022-10-07T22:17:43.722Z,80.85
2022-10-07T22:20:10.133Z,81.78
2022-10-07T22:22:36.789Z,82.38
2022-10-07T22:25:03.448Z,82.20
2022-10-07T22:27:29.875Z,82.70
2022-10-07T22:29:56.340Z,82.88
2022-10-07T22:32:22.769Z,82.64
2022-10-07T22:35:07.961Z,82.96
2022-10-07T22:37:35.884Z,82.89
2022-10-07T22:40:02.304Z,82.63
2022-10-07T22:42:28.854Z,83.25
2022-10-07T22:44:55.280Z,83.64
2022-10-07T22:47:21.886Z,84.39
2022-10-07T22:49:48.414Z,84.60
2022-10-07T22:52:15.127Z,85.32
2022-10-07T22:54:41.543Z,85.05
2022-10-07T22:57:07.992Z,84.85
2022-10-07T22:59:34.487Z,84.73
2022-10-07T23:02:02.195Z,84.57
2022-10-07T23:04:28.639Z,84.61
2022-10-07T23:06:55.074Z,84.76
2022-10-07T23:09:21.504Z,84.49
2022-10-07T23:11:47.974Z,85.00
2022-10-07T23:14:14.410Z,85.45
2022-10-07T23:16:41.919Z,85.36
2022-10-07T23:19:09.068Z,85.98
2022-10-07T23:21:35.560Z,85.77
2022-10-07T23:24:07.359Z,85.46
2022-10-07T23:26:35.049Z,84.90
2022-10-07T23:29:02.036Z,85.55
2022-10-07T23:31:31.635Z,85.99
2022-10-07T23:33:59.395Z,86.40
2022-10-07T23:36:26.304Z,86.52
2022-10-07T23:38:52.895Z,87.45
2022-10-07T23:41:21.814Z,87.56
2022-10-07T23:43:52.673Z,87.13
2022-10-07T23:46:20.421Z,87.48
2022-10-07T23:48:47.095Z,86.96
2022-10-07T23:51:16.100Z,86.30
2022-10-07T23:53:42.755Z,86.36
2022-10-07T23:56:09.219Z,87.21
2022-10-07T23:58:36.069Z,86.36
